Time;durP1;ratioP1;P1;durP2;ratioP2;P2;SDS_P1;SDS_P2;PMS_P1;PMS_P2;Temp;Humidity;BMP_temperature;BMP_pressure;BME280_temperature;BME280_humidity;BME280_pressure;Samples;Min_cycle;Max_cycle;Signal;HPM_P1;HPM_P2
2022/12/28 00:01:25;;;;;;;8.07;3.07;;;;;;;4.23;100.00;101568.97;6182578;22;20023;-87
2022/12/28 00:03:52;;;;;;;10.00;3.10;;;;;;;4.18;100.00;101571.41;6182535;23;20268;-87
2022/12/28 00:06:20;;;;;;;7.75;3.05;;;;;;;4.22;100.00;101571.81;6156936;23;20033;-87
2022/12/28 00:08:46;;;;;;;8.38;3.33;;;;;;;4.30;100.00;101570.81;6182603;23;20456;-86
2022/12/28 00:11:17;;;;;;;11.05;3.35;;;;;;;4.32;100.00;101569.63;6182718;23;20012;-86
2022/12/28 00:13:43;;;;;;;8.67;3.10;;;;;;;4.31;100.00;101554.72;6183146;23;20379;-86
2022/12/28 00:16:10;;;;;;;5.70;3.40;;;;;;;4.34;100.00;101549.03;6183350;23;20232;-87
2022/12/28 00:18:36;;;;;;;8.02;2.90;;;;;;;4.38;100.00;101542.28;6183294;23;20012;-86
2022/12/28 00:21:02;;;;;;;8.73;3.90;;;;;;;4.42;100.00;101524.16;6181971;23;20012;-86
2022/12/28 00:23:28;;;;;;;13.07;3.53;;;;;;;4.42;100.00;101516.19;6182469;23;20032;-87
2022/12/28 00:25:54;;;;;;;11.47;3.00;;;;;;;4.42;100.00;101515.34;6183596;23;20039;-87
2022/12/28 00:28:20;;;;;;;10.73;3.20;;;;;;;4.37;100.00;101502.69;6182763;23;20016;-87
2022/12/28 00:30:45;;;;;;;7.27;3.27;;;;;;;4.37;100.00;101497.38;6182299;23;20012;-88
2022/12/28 00:33:10;;;;;;;8.73;3.05;;;;;;;4.32;100.00;101487.38;6182619;23;20326;-87
2022/12/28 00:35:36;;;;;;;7.37;3.00;;;;;;;4.24;100.00;101484.88;6182379;23;20048;-87
2022/12/28 00:38:01;;;;;;;5.37;2.97;;;;;;;4.28;100.00;101504.72;6183512;23;20001;-87
2022/12/28 00:40:26;;;;;;;7.47;3.67;;;;;;;4.31;100.00;101488.38;6182022;23;20051;-87
2022/12/28 00:42:52;;;;;;;9.57;4.05;;;;;;;4.38;100.00;101488.41;6181421;23;20001;-87
2022/12/28 00:45:17;;;;;;;7.93;3.27;;;;;;;4.43;100.00;101480.69;6182280;23;20031;-87
2022/12/28 00:47:42;;;;;;;8.13;3.43;;;;;;;4.48;100.00;101488.84;6182930;23;20055;-87
2022/12/28 00:50:08;;;;;;;10.10;3.40;;;;;;;4.52;100.00;101478.66;6182568;23;20445;-87
2022/12/28 00:52:34;;;;;;;7.97;3.40;;;;;;;4.51;100.00;101471.72;6181994;23;20025;-88
2022/12/28 00:54:59;;;;;;;8.27;3.53;;;;;;;4.55;100.00;101464.97;6183046;23;20005;-87
2022/12/28 00:57:24;;;;;;;8.43;3.23;;;;;;;4.50;100.00;101454.16;6183020;23;20013;-87
2022/12/28 00:59:50;;;;;;;5.90;3.37;;;;;;;4.55;100.00;101441.09;6180969;23;20039;-87
2022/12/28 01:02:15;;;;;;;7.43;3.33;;;;;;;4.57;100.00;101449.66;6182963;23;20033;-88
2022/12/28 01:04:40;;;;;;;10.10;3.60;;;;;;;4.54;100.00;101448.22;6182423;23;20028;-88
2022/12/28 01:07:06;;;;;;;6.70;3.30;;;;;;;4.57;100.00;101440.88;6180632;23;20050;-87
2022/12/28 01:09:31;;;;;;;8.67;3.57;;;;;;;4.63;100.00;101448.84;6182193;23;20013;-87
2022/12/28 01:11:56;;;;;;;6.60;3.50;;;;;;;4.65;100.00;101441.50;6181516;23;20413;-87
2022/12/28 01:14:22;;;;;;;6.73;3.87;;;;;;;4.60;100.00;101438.63;6182010;23;20033;-87
2022/12/28 01:16:50;;;;;;;10.00;3.33;;;;;;;4.57;100.00;101431.06;6182755;23;20016;-88
2022/12/28 01:21:51;;;;;;;6.40;2.97;;;;;;;4.52;100.00;101425.56;6183643;22;20021;-86
2022/12/28 01:24:17;;;;;;;7.55;3.40;;;;;;;4.61;100.00;101434.16;6182815;23;20007;-87
2022/12/28 01:26:42;;;;;;;6.60;3.27;;;;;;;4.64;100.00;101423.13;6155508;23;20009;-87
2022/12/28 01:29:08;;;;;;;9.47;3.50;;;;;;;4.72;100.00;101430.06;6182672;23;20267;-87
2022/12/28 01:31:33;;;;;;;7.53;3.50;;;;;;;4.75;100.00;101430.47;6181351;23;20016;-87
2022/12/28 01:33:59;;;;;;;7.78;3.60;;;;;;;4.80;100.00;101419.25;6182259;23;20009;-87
2022/12/28 01:36:26;;;;;;;7.50;3.47;;;;;;;4.82;100.00;101425.16;6182206;23;20001;-87
2022/12/28 01:38:54;;;;;;;8.45;3.13;;;;;;;4.84;100.00;101412.50;6180600;23;20341;-87
2022/12/28 01:41:20;;;;;;;7.57;3.20;;;;;;;4.83;100.00;101410.88;6154907;23;20016;-87
2022/12/28 01:44:06;;;;;;;6.60;3.80;;;;;;;4.92;100.00;101409.66;6181795;23;20236;-87
2022/12/28 01:46:44;;;;;;;7.63;3.40;;;;;;;4.94;100.00;101404.91;6155387;23;20008;-86
2022/12/28 01:49:21;;;;;;;9.65;3.05;;;;;;;5.00;100.00;101400.66;6182392;23;20017;-85
2022/12/28 01:51:50;;;;;;;8.93;3.22;;;;;;;5.02;100.00;101382.66;6180490;23;20011;-86
2022/12/28 01:54:16;;;;;;;11.52;3.28;;;;;;;4.99;100.00;101372.47;6182610;23;20001;-86
2022/12/28 01:56:43;;;;;;;8.50;3.10;;;;;;;5.04;100.00;101377.94;6181331;23;20008;-87
2022/12/28 01:59:09;;;;;;;10.90;3.22;;;;;;;5.07;100.00;101376.72;6155546;23;20009;-86
2022/12/28 02:01:34;;;;;;;7.30;3.78;;;;;;;5.11;100.00;101356.69;6180516;23;20027;-86
2022/12/28 02:03:59;;;;;;;7.70;3.10;;;;;;;5.18;100.00;101352.16;6181647;23;20008;-87
2022/12/28 02:06:25;;;;;;;7.28;3.30;;;;;;;5.19;100.00;101345.84;6181002;23;20005;-87
2022/12/28 02:09:01;;;;;;;6.33;3.10;;;;;;;5.14;100.00;101333.19;6181461;23;20001;-87
2022/12/28 02:11:27;;;;;;;6.28;3.05;;;;;;;5.15;100.00;101329.50;6181437;23;20005;-87
2022/12/28 02:13:53;;;;;;;5.90;2.80;;;;;;;5.22;100.00;101318.84;6181860;23;20456;-87
2022/12/28 02:16:19;;;;;;;8.73;3.10;;;;;;;5.33;100.00;101324.53;6182524;23;20001;-87
2022/12/28 02:18:46;;;;;;;4.93;2.78;;;;;;;5.37;100.00;101321.25;6180592;23;20005;-87
2022/12/28 02:21:48;;;;;;;5.70;2.70;;;;;;;5.43;100.00;101319.59;6155125;23;20024;-86
2022/12/28 02:24:19;;;;;;;6.77;2.83;;;;;;;5.50;100.00;101304.41;6182033;23;20065;-87
2022/12/28 02:27:03;;;;;;;4.57;2.67;;;;;;;5.54;100.00;101302.16;6182007;23;20245;-87
2022/12/28 02:29:40;;;;;;;6.03;2.72;;;;;;;5.55;100.00;101286.00;6180737;23;20004;-87
2022/12/28 02:32:19;;;;;;;9.32;3.33;;;;;;;5.56;100.00;101290.28;6182149;23;20016;-87
2022/12/28 02:34:59;;;;;;;5.68;3.00;;;;;;;5.55;100.00;101274.56;6181941;23;20066;-87
2022/12/28 02:37:35;;;;;;;6.57;3.15;;;;;;;5.55;100.00;101258.59;6181761;23;20001;-86
2022/12/28 02:40:10;;;;;;;8.43;3.10;;;;;;;5.58;100.00;101263.47;6180742;23;20076;-87
2022/12/28 02:42:38;;;;;;;4.33;2.50;;;;;;;5.59;100.00;101257.97;6181629;23;20243;-87
2022/12/28 02:50:45;;;;;;;8.13;3.42;;;;;;;5.52;100.00;101264.34;6180183;23;20456;-87
2022/12/28 02:53:32;;;;;;;9.77;3.88;;;;;;;5.56;100.00;101265.56;6182603;23;20009;-87
2022/12/28 02:56:09;;;;;;;6.13;3.67;;;;;;;5.55;100.00;101266.59;6181895;23;20001;-87
2022/12/28 02:58:55;;;;;;;6.43;3.60;;;;;;;5.55;100.00;101263.91;6181408;23;20244;-87
2022/12/28 03:01:39;;;;;;;7.90;3.08;;;;;;;5.55;100.00;101262.06;6180761;23;20329;-87
2022/12/28 03:04:26;;;;;;;5.53;3.83;;;;;;;5.54;100.00;101246.34;6181497;23;20009;-87
2022/12/28 03:10:16;;;;;;;6.95;4.18;;;;;;;5.51;100.00;101247.56;6199113;22;20075;-87
2022/12/28 03:12:46;;;;;;;8.23;3.60;;;;;;;5.47;100.00;101241.06;6154727;23;20005;-87
2022/12/28 03:15:28;;;;;;;7.82;4.80;;;;;;;5.43;100.00;101232.69;6181451;23;20493;-87
2022/12/28 03:32:10;;;;;;;11.23;5.20;;;;;;;5.42;100.00;101222.28;6181640;23;20020;-87
2022/12/28 03:34:36;;;;;;;9.23;4.47;;;;;;;5.42;100.00;101207.13;6180880;23;20005;-87
2022/12/28 03:37:24;;;;;;;10.05;5.30;;;;;;;5.42;100.00;101206.34;6181965;23;20004;-87
2022/12/28 03:40:00;;;;;;;13.87;5.37;;;;;;;5.45;100.00;101208.56;6179864;23;20062;-87
2022/12/28 03:45:23;;;;;;;9.18;4.82;;;;;;;5.46;100.00;101210.19;6181069;23;20020;-86
2022/12/28 03:47:50;;;;;;;9.90;4.55;;;;;;;5.47;100.00;101214.50;6180937;23;20001;-87
2022/12/28 03:50:19;;;;;;;7.28;4.30;;;;;;;5.49;100.00;101201.75;6180395;23;20009;-87
2022/12/28 03:52:44;;;;;;;8.10;4.82;;;;;;;5.47;100.00;101209.16;6180847;23;20100;-87
2022/12/28 03:55:13;;;;;;;7.47;5.00;;;;;;;5.50;100.00;101211.38;6181231;23;20546;-87
2022/12/28 03:57:39;;;;;;;8.48;4.72;;;;;;;5.44;100.00;101183.00;6180566;23;20005;-87
2022/12/28 04:00:05;;;;;;;9.47;4.90;;;;;;;5.51;100.00;101194.41;6178752;23;20087;-87
2022/12/28 04:02:31;;;;;;;9.23;4.88;;;;;;;5.51;100.00;101188.28;6181138;23;20425;-87
2022/12/28 04:04:56;;;;;;;10.10;4.77;;;;;;;5.52;100.00;101179.28;6157004;23;20031;-87
2022/12/28 04:07:21;;;;;;;10.17;4.27;;;;;;;5.52;100.00;101181.94;6183384;23;20330;-87
2022/12/28 04:09:46;;;;;;;8.97;5.33;;;;;;;5.57;100.00;101190.06;6181540;23;20065;-87
2022/12/28 04:12:13;;;;;;;12.90;4.93;;;;;;;5.52;100.00;101171.31;6183317;23;20063;-87
2022/12/28 04:14:39;;;;;;;8.80;4.68;;;;;;;5.50;100.00;101160.88;6154984;23;20008;-87
2022/12/28 04:17:04;;;;;;;6.53;4.20;;;;;;;5.58;100.00;101175.75;6183537;23;20001;-88
2022/12/28 04:19:29;;;;;;;10.43;4.83;;;;;;;5.54;100.00;101169.25;6182317;23;20036;-87
2022/12/28 04:21:54;;;;;;;13.27;5.50;;;;;;;5.66;100.00;101180.81;6182920;23;20043;-88
2022/12/28 04:24:20;;;;;;;10.77;4.60;;;;;;;5.55;100.00;101154.94;6182800;23;20012;-88
2022/12/28 04:26:45;;;;;;;10.63;4.30;;;;;;;5.65;100.00;101167.75;6182935;23;20016;-87
2022/12/28 04:29:10;;;;;;;13.53;4.37;;;;;;;5.75;100.00;101179.50;6182842;23;20273;-88
2022/12/28 04:31:36;;;;;;;10.95;4.00;;;;;;;5.74;100.00;101171.75;6182297;23;20016;-88
2022/12/28 04:36:46;;;;;;;7.75;4.30;;;;;;;5.69;100.00;101166.25;6182568;23;20016;-88
2022/12/28 04:39:11;;;;;;;6.47;4.00;;;;;;;5.82;100.00;101171.50;6182724;23;20029;-88
2022/12/28 04:41:37;;;;;;;6.60;3.92;;;;;;;5.89;100.00;101182.06;6181380;23;20064;-86
2022/12/28 04:44:02;;;;;;;6.73;3.80;;;;;;;5.93;100.00;101175.28;6182034;23;20418;-87
2022/12/28 04:46:30;;;;;;;10.00;3.70;;;;;;;5.94;100.00;101166.25;6183089;23;20043;-87
2022/12/28 04:48:55;;;;;;;5.20;3.88;;;;;;;5.98;100.00;101162.13;6182395;23;20005;-87
2022/12/28 04:51:23;;;;;;;6.00;3.50;;;;;;;6.01;100.00;101176.88;6182155;23;20032;-87
2022/12/28 04:53:49;;;;;;;9.52;4.10;;;;;;;5.95;100.00;101167.88;6182652;23;20489;-87
2022/12/28 04:56:16;;;;;;;10.50;4.57;;;;;;;5.97;100.00;101165.00;6182705;23;20001;-87
2022/12/28 04:58:42;;;;;;;12.77;4.28;;;;;;;6.03;100.00;101170.31;6182422;23;20027;-87
2022/12/28 05:01:12;;;;;;;12.07;4.20;;;;;;;6.03;100.00;101158.84;6182170;23;20009;-87
2022/12/28 05:03:39;;;;;;;7.80;4.15;;;;;;;6.04;100.00;101169.28;6182090;23;20421;-87
2022/12/28 05:06:07;;;;;;;10.55;4.30;;;;;;;6.02;100.00;101160.69;6182804;23;20059;-87
2022/12/28 05:08:34;;;;;;;13.05;4.28;;;;;;;6.05;100.00;101162.09;6181210;23;20508;-86
2022/12/28 05:11:01;;;;;;;7.03;4.13;;;;;;;6.08;100.00;101155.53;6181998;23;20015;-87
2022/12/28 05:13:27;;;;;;;10.52;4.18;;;;;;;6.10;100.00;101154.28;6182610;23;20001;-86
2022/12/28 05:15:52;;;;;;;8.45;4.35;;;;;;;6.12;100.00;101151.38;6182809;23;20012;-86
2022/12/28 05:18:17;;;;;;;8.57;4.13;;;;;;;6.13;100.00;101143.19;6182563;23;20039;-86
2022/12/28 05:20:43;;;;;;;8.37;4.37;;;;;;;6.12;100.00;101146.88;6181353;23;20131;-86
2022/12/28 05:23:08;;;;;;;6.43;4.20;;;;;;;6.14;100.00;101157.31;6181237;23;20005;-87
2022/12/28 05:25:33;;;;;;;13.63;4.70;;;;;;;6.16;100.00;101157.91;6182263;23;20076;-87
2022/12/28 05:27:58;;;;;;;9.40;4.22;;;;;;;6.16;100.00;101160.56;6181490;23;20060;-87
2022/12/28 05:30:24;;;;;;;5.90;4.17;;;;;;;6.16;100.00;101142.75;6181875;23;20402;-85
2022/12/28 05:32:50;;;;;;;7.03;4.60;;;;;;;6.17;100.00;101154.19;6181612;23;20016;-86
2022/12/28 05:35:16;;;;;;;9.70;4.63;;;;;;;6.18;100.00;101151.34;6181976;23;20008;-86
2022/12/28 05:37:41;;;;;;;6.87;4.33;;;;;;;6.20;100.00;101149.28;6181811;23;20008;-85
2022/12/28 05:40:07;;;;;;;10.90;4.43;;;;;;;6.15;100.00;101146.44;6180520;23;20008;-85
2022/12/28 05:42:34;;;;;;;11.05;4.95;;;;;;;6.22;100.00;101162.34;6181119;23;20084;-86
2022/12/28 05:44:59;;;;;;;7.47;4.17;;;;;;;6.20;100.00;101156.44;6182176;23;20001;-87
2022/12/28 05:47:24;;;;;;;6.07;4.07;;;;;;;6.22;100.00;101157.81;6182500;23;20001;-87
2022/12/28 05:49:50;;;;;;;8.97;3.90;;;;;;;6.24;100.00;101156.78;6180248;23;20005;-88
2022/12/28 05:52:15;;;;;;;10.87;4.67;;;;;;;6.25;100.00;101159.25;6181637;23;20429;-90
2022/12/28 05:54:40;;;;;;;7.53;4.40;;;;;;;6.26;100.00;101152.06;6156030;23;20001;-90
2022/12/28 05:57:06;;;;;;;9.77;4.50;;;;;;;6.24;100.00;101138.16;6182628;23;20001;-91
2022/12/28 05:59:31;;;;;;;11.57;4.20;;;;;;;6.30;100.00;101147.94;6181486;23;20005;-89
2022/12/28 06:01:56;;;;;;;11.50;3.93;;;;;;;6.28;100.00;101148.16;6181384;23;20012;-89
2022/12/28 06:04:21;;;;;;;11.77;5.33;;;;;;;6.32;100.00;101133.38;6181020;23;20036;-89
2022/12/28 06:06:47;;;;;;;9.07;4.30;;;;;;;6.31;100.00;101123.75;6179596;23;20317;-88
2022/12/28 06:09:13;;;;;;;7.93;4.63;;;;;;;6.34;100.00;101133.97;6182252;23;20069;-89
2022/12/28 06:11:39;;;;;;;9.07;4.35;;;;;;;6.35;100.00;101129.47;6180259;23;20046;-90
2022/12/28 06:14:04;;;;;;;7.83;4.30;;;;;;;6.34;100.00;101127.84;6181596;23;20337;-89
2022/12/28 06:16:32;;;;;;;8.73;4.55;;;;;;;6.35;100.00;101116.97;6181221;23;20028;-89
2022/12/28 06:19:02;;;;;;;8.45;4.15;;;;;;;6.35;100.00;101119.63;6181725;23;20005;-89
2022/12/28 06:21:30;;;;;;;10.60;4.80;;;;;;;6.39;100.00;101108.53;6180246;23;20622;-89
2022/12/28 06:23:57;;;;;;;10.75;4.47;;;;;;;6.39;100.00;101119.19;6181874;23;20001;-88
2022/12/28 06:26:23;;;;;;;8.45;4.45;;;;;;;6.41;100.00;101111.78;6181675;23;20031;-89
2022/12/28 06:28:49;;;;;;;7.60;4.32;;;;;;;6.41;100.00;101106.47;6180595;23;20009;-88
2022/12/28 06:31:20;;;;;;;7.87;3.97;;;;;;;6.41;100.00;101101.94;6180628;23;20091;-88
2022/12/28 06:33:47;;;;;;;5.57;4.57;;;;;;;6.38;100.00;101113.06;6182145;23;20243;-90
2022/12/28 06:36:14;;;;;;;8.93;4.47;;;;;;;6.42;100.00;101102.75;6183279;23;20025;-89
2022/12/28 06:38:40;;;;;;;7.47;4.88;;;;;;;6.44;100.00;101103.34;6181771;23;20505;-90
2022/12/28 06:41:08;;;;;;;9.07;3.53;;;;;;;6.42;100.00;101100.09;6180759;23;20040;-92
2022/12/28 06:43:35;;;;;;;5.70;3.78;;;;;;;6.44;100.00;101112.16;6180022;23;20532;-90
2022/12/28 06:46:01;;;;;;;9.77;4.18;;;;;;;6.44;100.00;101095.38;6181988;23;20397;-90
2022/12/28 06:48:28;;;;;;;9.57;4.82;;;;;;;6.45;100.00;101103.13;6181518;23;20001;-90
2022/12/28 06:50:58;;;;;;;5.73;3.53;;;;;;;6.47;100.00;101092.28;6178768;23;20001;-90
2022/12/28 06:53:24;;;;;;;6.88;3.75;;;;;;;6.44;100.00;101088.19;6181616;23;20005;-88
2022/12/28 06:56:01;;;;;;;5.93;3.55;;;;;;;6.46;100.00;101083.44;6181381;23;20005;-88
2022/12/28 06:58:28;;;;;;;10.32;4.15;;;;;;;6.49;100.00;101083.00;6181764;23;20001;-88
2022/12/28 07:00:54;;;;;;;8.50;3.92;;;;;;;6.48;100.00;101081.38;6179786;23;20052;-88
2022/12/28 07:03:23;;;;;;;7.47;4.13;;;;;;;6.49;100.00;101085.69;6179222;23;20009;-91
2022/12/28 07:05:49;;;;;;;11.27;4.30;;;;;;;6.51;100.00;101083.59;6180290;23;20235;-91
2022/12/28 07:08:14;;;;;;;8.40;4.43;;;;;;;6.47;100.00;101071.78;6180569;23;20080;-91
2022/12/28 07:10:40;;;;;;;7.97;4.10;;;;;;;6.54;100.00;101087.66;6179725;23;20031;-91
2022/12/28 07:13:06;;;;;;;7.03;3.95;;;;;;;6.56;100.00;101085.59;6180096;23;20016;-90
2022/12/28 07:15:33;;;;;;;8.77;4.18;;;;;;;6.56;100.00;101082.94;6180663;23;20578;-89
2022/12/28 07:17:59;;;;;;;9.98;4.32;;;;;;;6.56;100.00;101076.81;6180910;23;20485;-91
2022/12/28 07:20:24;;;;;;;6.33;3.57;;;;;;;6.59;100.00;101076.31;6180203;23;20029;-88
2022/12/28 07:22:49;;;;;;;10.53;3.97;;;;;;;6.52;100.00;101071.09;6179287;23;20084;-90
2022/12/28 07:25:15;;;;;;;5.47;3.57;;;;;;;6.60;100.00;101085.94;6180477;23;19997;-89
2022/12/28 07:27:40;;;;;;;7.53;3.70;;;;;;;6.59;100.00;101085.16;6180367;23;20005;-90
2022/12/28 07:30:06;;;;;;;6.43;3.83;;;;;;;6.61;100.00;101084.91;6180221;23;20009;-90
2022/12/28 07:32:36;;;;;;;9.50;4.00;;;;;;;6.62;100.00;101092.69;6180484;23;20239;-88
2022/12/28 07:35:01;;;;;;;5.95;3.30;;;;;;;6.62;100.00;101076.72;6180462;23;20081;-89
2022/12/28 07:37:26;;;;;;;7.50;3.30;;;;;;;6.61;100.00;101075.09;6181895;23;20013;-89
2022/12/28 07:39:52;;;;;;;6.77;3.33;;;;;;;6.67;100.00;101084.03;6180708;23;20009;-90
2022/12/28 07:42:17;;;;;;;6.68;3.50;;;;;;;6.64;100.00;101074.63;6181615;23;20033;-90
2022/12/28 07:44:44;;;;;;;6.00;2.93;;;;;;;6.59;100.00;101060.34;6181790;23;20005;-91
2022/12/28 07:47:10;;;;;;;7.80;3.72;;;;;;;6.66;100.00;101077.88;6181874;23;20000;-92
2022/12/28 07:49:38;;;;;;;5.27;3.20;;;;;;;6.69;100.00;101075.78;6182842;23;20361;-91
2022/12/28 07:52:03;;;;;;;8.55;3.90;;;;;;;6.67;100.00;101081.34;6183382;23;20015;-91
2022/12/28 07:54:29;;;;;;;3.83;3.17;;;;;;;6.64;100.00;101079.97;6182797;23;20009;-91
2022/12/28 07:56:54;;;;;;;7.00;3.50;;;;;;;6.57;100.00;101067.78;6183273;23;20001;-92
2022/12/28 08:02:41;;;;;;;7.57;3.33;;;;;;;6.58;100.00;101059.56;6184776;23;20029;-91
2022/12/28 08:05:07;;;;;;;6.60;3.90;;;;;;;6.74;100.00;101084.75;6186352;23;20337;-91
2022/12/28 08:07:32;;;;;;;7.00;3.47;;;;;;;6.73;100.00;101083.13;6183707;23;20005;-91
2022/12/28 08:09:58;;;;;;;4.33;3.60;;;;;;;6.70;100.00;101077.41;6183457;23;20005;-91
2022/12/28 08:12:23;;;;;;;8.15;3.42;;;;;;;6.78;100.00;101085.09;6182901;23;20444;-92
2022/12/28 08:14:49;;;;;;;5.77;3.20;;;;;;;6.67;100.00;101060.06;6181795;23;20005;-94
2022/12/28 08:17:14;;;;;;;6.37;3.20;;;;;;;6.78;100.00;101079.78;6182632;23;20068;-89
2022/12/28 08:19:39;;;;;;;10.57;4.10;;;;;;;6.80;100.00;101083.03;6180424;23;20430;-90
2022/12/28 08:22:05;;;;;;;7.90;3.90;;;;;;;6.77;100.00;101070.16;6182266;23;20005;-90
2022/12/28 08:24:30;;;;;;;8.77;3.33;;;;;;;6.82;100.00;101076.44;6154437;23;20092;-93
2022/12/28 08:26:56;;;;;;;4.33;3.30;;;;;;;6.83;100.00;101079.91;6184305;23;20377;-90
2022/12/28 08:29:21;;;;;;;6.17;3.03;;;;;;;6.88;100.00;101068.56;6184408;23;20036;-90
2022/12/28 08:31:47;;;;;;;6.65;3.17;;;;;;;6.88;100.00;101071.25;6181112;23;20503;-91
2022/12/28 08:34:16;;;;;;;12.73;3.70;;;;;;;6.91;100.00;101068.13;6182071;23;20012;-90
2022/12/28 08:36:45;;;;;;;9.60;3.80;;;;;;;6.93;100.00;101080.19;6182683;23;20005;-91
2022/12/28 08:39:19;;;;;;;10.70;3.42;;;;;;;6.91;100.00;101057.47;6182114;23;20477;-91
2022/12/28 08:42:03;;;;;;;;;;;;;;;;;;;;;
2022/12/28 08:44:29;;;;;;;9.13;3.70;;;;;;;6.90;100.00;101058.50;6177627;22;20386;-91
2022/12/28 08:46:55;;;;;;;5.93;3.53;;;;;;;6.95;100.00;101063.94;6182196;23;20029;-90
2022/12/28 08:49:20;;;;;;;9.88;4.10;;;;;;;7.04;100.00;101073.25;6181928;23;20472;-90
2022/12/28 08:51:45;;;;;;;12.47;3.37;;;;;;;6.98;100.00;101068.81;6181800;23;20080;-91
2022/12/28 08:54:12;;;;;;;12.67;3.93;;;;;;;7.07;100.00;101082.63;6180899;23;20534;-92
2022/12/28 08:56:39;;;;;;;9.45;3.63;;;;;;;7.07;100.00;101067.47;6184073;23;20005;-90
2022/12/28 08:59:05;;;;;;;7.50;3.38;;;;;;;7.08;100.00;101079.75;6184124;23;20385;-91
2022/12/28 09:01:34;;;;;;;8.07;3.10;;;;;;;7.08;100.00;101077.09;6181770;23;20036;-90
2022/12/28 09:04:00;;;;;;;3.83;2.60;;;;;;;7.06;100.00;101065.84;6182258;23;20448;-89
2022/12/28 09:06:34;;;;;;;9.73;3.23;;;;;;;7.09;100.00;101070.72;6182885;23;20290;-90
2022/12/28 09:09:42;;;;;;;8.95;3.65;;;;;;;7.11;100.00;101084.66;6181397;23;20397;-89
2022/12/28 09:12:08;;;;;;;7.20;3.50;;;;;;;7.00;100.00;101064.09;6180842;23;20032;-90
2022/12/28 09:17:49;;;;;;;4.97;3.45;;;;;;;7.02;100.00;101056.69;6183683;22;20111;-90
2022/12/28 09:20:51;;;;;;;7.07;3.00;;;;;;;7.19;100.00;101070.16;6181651;23;20032;-92
2022/12/28 09:23:17;;;;;;;6.28;3.17;;;;;;;7.11;100.00;101062.50;6189007;23;20005;-95
2022/12/28 09:25:42;;;;;;;7.07;2.70;;;;;;;7.15;100.00;101045.00;6184822;23;20004;-95
2022/12/28 09:28:07;;;;;;;5.88;3.22;;;;;;;7.32;100.00;101084.31;6181429;23;20032;-90
2022/12/28 09:30:36;;;;;;;10.33;2.73;;;;;;;7.33;100.00;101065.41;6181554;23;20005;-90
2022/12/28 09:35:56;;;;;;;8.50;2.63;;;;;;;7.35;100.00;101054.53;6182063;23;20020;-91
2022/12/28 09:38:21;;;;;;;7.68;3.22;;;;;;;7.40;100.00;101068.81;6181116;23;20005;-88
2022/12/28 09:40:49;;;;;;;5.47;2.20;;;;;;;7.43;100.00;101076.34;6180991;23;20088;-90
2022/12/28 09:43:15;;;;;;;4.45;2.50;;;;;;;7.40;100.00;101068.81;6181785;23;20095;-91
2022/12/28 09:45:42;;;;;;;5.75;2.08;;;;;;;7.49;100.00;101073.78;6180678;23;20016;-90
2022/12/28 09:48:14;;;;;;;5.38;2.05;;;;;;;7.45;100.00;101065.44;6180491;23;20009;-90
2022/12/28 09:50:39;;;;;;;5.28;2.28;;;;;;;7.53;100.00;101072.28;6180144;23;20342;-90
2022/12/28 09:53:26;;;;;;;2.73;1.90;;;;;;;7.54;100.00;101066.72;6181182;23;20076;-89
2022/12/28 09:56:16;;;;;;;4.65;2.03;;;;;;;7.56;100.00;101063.81;6181714;23;20012;-91
2022/12/28 10:06:47;;;;;;;3.58;1.80;;;;;;;7.56;100.00;101069.97;6193364;22;20025;-92
2022/12/28 10:09:24;;;;;;;3.67;1.60;;;;;;;7.55;100.00;101064.88;6152146;23;20342;-91
2022/12/28 10:12:13;;;;;;;3.97;1.50;;;;;;;7.57;100.00;101062.78;6154493;23;20025;-95
2022/12/28 10:14:40;;;;;;;3.47;1.70;;;;;;;7.54;100.00;101044.56;6153322;23;20064;-95
2022/12/28 10:17:06;;;;;;;4.43;1.53;;;;;;;7.65;100.00;101053.63;6161099;23;20280;-95
2022/12/28 10:19:47;;;;;;;3.92;1.52;;;;;;;7.55;100.00;101041.69;6153687;23;20001;-93
2022/12/28 10:22:17;;;;;;;2.53;1.70;;;;;;;7.54;100.00;101028.56;6165261;23;20006;-93
2022/12/28 10:28:06;;;;;;;3.35;1.80;;;;;;;7.65;100.00;101034.94;6151970;23;20020;-93
2022/12/28 10:30:32;;;;;;;5.00;1.90;;;;;;;7.62;100.00;101033.56;6151008;23;20013;-95
2022/12/28 10:32:59;;;;;;;3.53;1.80;;;;;;;7.74;100.00;101044.22;6152128;23;20358;-93
2022/12/28 10:35:29;;;;;;;3.10;1.83;;;;;;;7.74;100.00;101038.91;6152351;23;20001;-94
2022/12/28 10:38:00;;;;;;;3.63;2.20;;;;;;;7.75;100.00;101040.53;6151931;23;20029;-92
2022/12/28 10:40:29;;;;;;;3.73;1.93;;;;;;;7.76;100.00;101038.66;6150835;23;20256;-93
2022/12/28 10:42:56;;;;;;;3.92;1.70;;;;;;;7.71;100.00;101034.03;6151328;23;20010;-92
2022/12/28 10:45:28;;;;;;;2.50;1.70;;;;;;;7.71;100.00;101034.03;6151552;23;20363;-93
2022/12/28 10:47:55;;;;;;;4.63;2.20;;;;;;;7.77;100.00;101032.28;6150940;23;20001;-92
2022/12/28 10:50:40;;;;;;;5.93;2.40;;;;;;;7.64;100.00;101023.47;6159262;22;20005;-93
2022/12/28 10:53:45;;;;;;;2.45;2.10;;;;;;;7.70;100.00;101022.53;6182068;23;20005;-94
2022/12/28 10:56:11;;;;;;;5.43;2.23;;;;;;;7.77;100.00;101034.94;6051881;23;20074;-93
2022/12/28 10:58:36;;;;;;;4.60;2.00;;;;;;;7.71;100.00;101010.03;6069304;23;20371;-93
2022/12/28 11:01:16;;;;;;;5.00;2.17;;;;;;;7.73;100.00;101016.72;6168558;23;20194;-93
2022/12/28 11:03:54;;;;;;;3.22;2.40;;;;;;;7.75;100.00;101027.19;6169741;23;20092;-95
2022/12/28 11:06:24;;;;;;;6.00;2.78;;;;;;;7.66;100.00;101000.06;6170364;23;20023;-93
2022/12/28 11:08:59;;;;;;;7.75;2.72;;;;;;;7.75;100.00;101013.84;6148049;23;20024;-94
2022/12/28 11:11:24;;;;;;;4.33;2.40;;;;;;;7.76;100.00;101022.66;6154443;23;20035;-92
2022/12/28 11:13:59;;;;;;;6.33;2.30;;;;;;;7.68;100.00;101008.59;6183492;23;20268;-92
2022/12/28 11:16:24;;;;;;;5.43;2.13;;;;;;;7.70;100.00;101009.19;6183412;23;20001;-92
2022/12/28 11:18:50;;;;;;;4.33;2.60;;;;;;;7.74;100.00;101006.88;6180358;23;20761;-91
2022/12/28 11:21:20;;;;;;;4.10;2.50;;;;;;;7.74;100.00;100985.56;6182341;23;20012;-92
2022/12/28 11:23:50;;;;;;;5.13;2.25;;;;;;;7.76;100.00;100991.44;6183140;23;20512;-92
2022/12/28 11:26:30;;;;;;;;;;;;;;;;;;;;;
2022/12/28 11:31:38;;;;;;;3.03;2.27;;;;;;;7.78;100.00;100991.22;6183026;23;20024;-91
2022/12/28 11:34:05;;;;;;;6.13;2.30;;;;;;;7.83;100.00;100992.13;6183121;23;20245;-90
2022/12/28 11:53:32;;;;;;;7.32;2.30;;;;;;;7.83;100.00;100961.97;6175110;22;20020;-92
2022/12/28 11:56:03;;;;;;;2.35;1.83;;;;;;;7.70;100.00;100942.50;6174080;23;20058;-92
2022/12/28 11:58:28;;;;;;;4.83;1.90;;;;;;;7.77;100.00;100954.91;6174629;23;20005;-91
2022/12/28 12:00:55;;;;;;;5.27;1.70;;;;;;;7.76;100.00;100955.97;6172048;23;20005;-91
2022/12/28 12:03:56;;;;;;;6.63;2.10;;;;;;;7.72;100.00;100932.41;6176712;23;20279;-91
2022/12/28 12:06:43;;;;;;;5.40;2.38;;;;;;;7.70;100.00;100939.03;6175251;23;20001;-96
2022/12/28 12:09:21;;;;;;;5.05;1.80;;;;;;;7.66;100.00;100930.72;6176841;23;20016;-94
2022/12/28 12:11:51;;;;;;;8.38;2.40;;;;;;;7.67;100.00;100936.84;6171159;23;20017;-93
2022/12/28 12:14:25;;;;;;;10.63;2.47;;;;;;;7.68;100.00;100933.13;6177020;23;20001;-94
2022/12/28 12:19:27;;;;;;;3.90;2.10;;;;;;;7.70;100.00;100929.16;6187786;23;20021;-94
2022/12/28 12:22:01;;;;;;;5.80;2.03;;;;;;;7.61;100.00;100903.94;6182428;23;20009;-96
2022/12/28 12:24:40;;;;;;;6.97;2.10;;;;;;;7.64;100.00;100906.13;6181193;23;20380;-96
2022/12/28 12:34:39;;;;;;;6.00;1.77;;;;;;;7.64;100.00;100900.78;6189028;22;20644;-96
2022/12/28 12:37:35;;;;;;;8.55;2.30;;;;;;;7.64;100.00;100905.31;6213427;23;20017;-94
2022/12/28 12:40:23;;;;;;;7.77;2.33;;;;;;;7.57;100.00;100884.09;6180103;23;20013;-94
2022/12/28 12:43:22;;;;;;;6.55;1.98;;;;;;;7.68;100.00;100887.78;6181866;23;20639;-94
2022/12/28 12:46:05;;;;;;;5.95;2.28;;;;;;;7.70;100.00;100877.69;6181590;23;20371;-96
2022/12/28 12:48:43;;;;;;;3.72;1.90;;;;;;;7.76;100.00;100867.94;6181560;23;20166;-96
2022/12/28 12:51:20;;;;;;;3.28;2.17;;;;;;;7.78;100.00;100868.50;6182940;23;20337;-95
2022/12/28 12:54:00;;;;;;;5.68;2.22;;;;;;;7.79;100.00;100851.44;6182933;23;19997;-95
2022/12/28 13:01:52;;;;;;;4.80;2.30;;;;;;;7.69;100.00;100834.19;6187285;23;20025;-95
2022/12/28 13:04:20;;;;;;;10.25;2.42;;;;;;;7.72;100.00;100827.59;6213278;23;20001;-96